sensor_id;sensor_type;location;lat;lon;timestamp;P1;durP1;ratioP1;P2;durP2;ratioP2
21890;SDS011;11110;52.386;16.940;2023-04-19T00:02:17;15.10;;;5.60;;
21890;SDS011;11110;52.386;16.940;2023-04-19T00:04:46;16.03;;;6.00;;
21890;SDS011;11110;52.386;16.940;2023-04-19T00:07:14;16.53;;;5.40;;
21890;SDS011;11110;52.386;16.940;2023-04-19T00:09:44;15.83;;;5.67;;
21890;SDS011;11110;52.386;16.940;2023-04-19T00:12:12;16.63;;;5.17;;
21890;SDS011;11110;52.386;16.940;2023-04-19T00:14:41;21.73;;;6.40;;
21890;SDS011;11110;52.386;16.940;2023-04-19T00:17:09;13.17;;;4.97;;
21890;SDS011;11110;52.386;16.940;2023-04-19T00:19:39;15.53;;;5.27;;
21890;SDS011;11110;52.386;16.940;2023-04-19T00:22:07;15.30;;;5.03;;
21890;SDS011;11110;52.386;16.940;2023-04-19T00:24:36;13.90;;;4.93;;
21890;SDS011;11110;52.386;16.940;2023-04-19T00:27:04;16.60;;;5.43;;
21890;SDS011;11110;52.386;16.940;2023-04-19T00:29:33;14.23;;;5.33;;
21890;SDS011;11110;52.386;16.940;2023-04-19T00:32:01;19.90;;;5.20;;
21890;SDS011;11110;52.386;16.940;2023-04-19T00:34:31;18.80;;;5.67;;
21890;SDS011;11110;52.386;16.940;2023-04-19T00:37:01;16.80;;;5.27;;
21890;SDS011;11110;52.386;16.940;2023-04-19T00:39:31;13.23;;;4.67;;
21890;SDS011;11110;52.386;16.940;2023-04-19T00:41:59;14.63;;;5.17;;
21890;SDS011;11110;52.386;16.940;2023-04-19T00:44:28;13.27;;;4.93;;
21890;SDS011;11110;52.386;16.940;2023-04-19T00:46:57;13.20;;;4.83;;
21890;SDS011;11110;52.386;16.940;2023-04-19T00:49:27;9.17;;;4.07;;
21890;SDS011;11110;52.386;16.940;2023-04-19T00:51:57;13.70;;;4.73;;
21890;SDS011;11110;52.386;16.940;2023-04-19T00:54:26;11.80;;;4.43;;
21890;SDS011;11110;52.386;16.940;2023-04-19T00:56:55;16.30;;;4.87;;
21890;SDS011;11110;52.386;16.940;2023-04-19T00:59:23;11.53;;;4.13;;
21890;SDS011;11110;52.386;16.940;2023-04-19T01:01:52;12.70;;;4.70;;
21890;SDS011;11110;52.386;16.940;2023-04-19T01:04:21;16.80;;;5.47;;
21890;SDS011;11110;52.386;16.940;2023-04-19T01:06:51;13.30;;;4.97;;
21890;SDS011;11110;52.386;16.940;2023-04-19T01:09:20;15.47;;;5.10;;
21890;SDS011;11110;52.386;16.940;2023-04-19T01:11:50;17.00;;;5.07;;
21890;SDS011;11110;52.386;16.940;2023-04-19T01:14:19;15.23;;;4.97;;
21890;SDS011;11110;52.386;16.940;2023-04-19T01:16:48;15.10;;;4.30;;
21890;SDS011;11110;52.386;16.940;2023-04-19T01:19:17;17.03;;;5.17;;
21890;SDS011;11110;52.386;16.940;2023-04-19T01:21:47;13.53;;;4.30;;
21890;SDS011;11110;52.386;16.940;2023-04-19T01:24:17;11.37;;;4.13;;
21890;SDS011;11110;52.386;16.940;2023-04-19T01:26:48;15.73;;;5.27;;
21890;SDS011;11110;52.386;16.940;2023-04-19T01:29:17;12.17;;;4.40;;
21890;SDS011;11110;52.386;16.940;2023-04-19T01:31:47;14.93;;;5.03;;
21890;SDS011;11110;52.386;16.940;2023-04-19T01:34:19;19.17;;;5.07;;
21890;SDS011;11110;52.386;16.940;2023-04-19T01:36:49;14.60;;;4.77;;
21890;SDS011;11110;52.386;16.940;2023-04-19T01:39:18;15.87;;;4.87;;
21890;SDS011;11110;52.386;16.940;2023-04-19T01:41:47;18.37;;;4.87;;
21890;SDS011;11110;52.386;16.940;2023-04-19T01:44:15;13.93;;;4.53;;
21890;SDS011;11110;52.386;16.940;2023-04-19T01:46:44;12.53;;;4.10;;
21890;SDS011;11110;52.386;16.940;2023-04-19T01:49:12;18.40;;;5.07;;
21890;SDS011;11110;52.386;16.940;2023-04-19T01:51:42;14.60;;;4.20;;
21890;SDS011;11110;52.386;16.940;2023-04-19T01:54:10;13.30;;;4.47;;
21890;SDS011;11110;52.386;16.940;2023-04-19T01:56:40;18.77;;;5.50;;
21890;SDS011;11110;52.386;16.940;2023-04-19T01:59:09;13.67;;;4.20;;
21890;SDS011;11110;52.386;16.940;2023-04-19T02:01:37;12.27;;;4.13;;
21890;SDS011;11110;52.386;16.940;2023-04-19T02:04:05;17.17;;;4.43;;
21890;SDS011;11110;52.386;16.940;2023-04-19T02:06:34;14.87;;;4.43;;
21890;SDS011;11110;52.386;16.940;2023-04-19T02:09:03;17.63;;;4.43;;
21890;SDS011;11110;52.386;16.940;2023-04-19T02:11:32;16.93;;;4.73;;
21890;SDS011;11110;52.386;16.940;2023-04-19T02:14:02;15.93;;;4.83;;
21890;SDS011;11110;52.386;16.940;2023-04-19T02:16:30;13.63;;;4.57;;
21890;SDS011;11110;52.386;16.940;2023-04-19T02:19:01;16.97;;;5.53;;
21890;SDS011;11110;52.386;16.940;2023-04-19T02:21:32;16.80;;;4.93;;
21890;SDS011;11110;52.386;16.940;2023-04-19T02:24:00;12.57;;;3.63;;
21890;SDS011;11110;52.386;16.940;2023-04-19T02:26:30;16.70;;;4.53;;
21890;SDS011;11110;52.386;16.940;2023-04-19T02:28:58;15.53;;;4.43;;
21890;SDS011;11110;52.386;16.940;2023-04-19T02:31:28;11.80;;;4.10;;
21890;SDS011;11110;52.386;16.940;2023-04-19T02:33:57;10.50;;;3.80;;
21890;SDS011;11110;52.386;16.940;2023-04-19T02:36:25;13.53;;;4.17;;
21890;SDS011;11110;52.386;16.940;2023-04-19T02:38:53;12.53;;;3.90;;
21890;SDS011;11110;52.386;16.940;2023-04-19T02:41:22;16.10;;;4.63;;
21890;SDS011;11110;52.386;16.940;2023-04-19T02:43:50;14.90;;;4.30;;
21890;SDS011;11110;52.386;16.940;2023-04-19T02:46:19;14.53;;;4.20;;
21890;SDS011;11110;52.386;16.940;2023-04-19T02:48:49;16.30;;;4.60;;
21890;SDS011;11110;52.386;16.940;2023-04-19T02:51:17;17.40;;;4.70;;
21890;SDS011;11110;52.386;16.940;2023-04-19T02:53:46;13.87;;;4.30;;
21890;SDS011;11110;52.386;16.940;2023-04-19T02:56:14;13.53;;;4.00;;
21890;SDS011;11110;52.386;16.940;2023-04-19T02:58:43;17.63;;;4.97;;
21890;SDS011;11110;52.386;16.940;2023-04-19T03:01:12;17.90;;;5.20;;
21890;SDS011;11110;52.386;16.940;2023-04-19T03:03:41;14.57;;;4.40;;
21890;SDS011;11110;52.386;16.940;2023-04-19T03:06:11;17.00;;;4.37;;
21890;SDS011;11110;52.386;16.940;2023-04-19T03:08:40;12.50;;;3.83;;
21890;SDS011;11110;52.386;16.940;2023-04-19T03:11:09;13.83;;;4.33;;
21890;SDS011;11110;52.386;16.940;2023-04-19T03:13:38;17.53;;;4.97;;
21890;SDS011;11110;52.386;16.940;2023-04-19T03:16:06;14.07;;;4.20;;
21890;SDS011;11110;52.386;16.940;2023-04-19T03:18:36;17.03;;;4.83;;
21890;SDS011;11110;52.386;16.940;2023-04-19T03:21:05;20.70;;;5.30;;
21890;SDS011;11110;52.386;16.940;2023-04-19T03:23:52;15.33;;;4.40;;
21890;SDS011;11110;52.386;16.940;2023-04-19T03:26:23;14.80;;;4.50;;
21890;SDS011;11110;52.386;16.940;2023-04-19T03:28:53;11.27;;;3.53;;
21890;SDS011;11110;52.386;16.940;2023-04-19T03:31:41;14.17;;;4.37;;
21890;SDS011;11110;52.386;16.940;2023-04-19T03:34:11;19.43;;;4.80;;
21890;SDS011;11110;52.386;16.940;2023-04-19T03:36:43;14.87;;;4.20;;
21890;SDS011;11110;52.386;16.940;2023-04-19T03:39:13;14.27;;;4.57;;
21890;SDS011;11110;52.386;16.940;2023-04-19T03:41:45;13.23;;;4.10;;
21890;SDS011;11110;52.386;16.940;2023-04-19T03:44:43;26.27;;;5.47;;
21890;SDS011;11110;52.386;16.940;2023-04-19T03:47:14;15.03;;;3.97;;
21890;SDS011;11110;52.386;16.940;2023-04-19T03:49:46;16.00;;;4.73;;
21890;SDS011;11110;52.386;16.940;2023-04-19T03:52:16;14.37;;;4.03;;
21890;SDS011;11110;52.386;16.940;2023-04-19T03:54:46;19.03;;;4.90;;
21890;SDS011;11110;52.386;16.940;2023-04-19T03:57:29;19.93;;;5.57;;
21890;SDS011;11110;52.386;16.940;2023-04-19T04:00:00;12.87;;;4.27;;
21890;SDS011;11110;52.386;16.940;2023-04-19T04:02:39;12.90;;;4.10;;
21890;SDS011;11110;52.386;16.940;2023-04-19T04:05:11;16.33;;;4.73;;
21890;SDS011;11110;52.386;16.940;2023-04-19T04:07:40;9.80;;;3.57;;
21890;SDS011;11110;52.386;16.940;2023-04-19T04:10:10;16.17;;;5.50;;
21890;SDS011;11110;52.386;16.940;2023-04-19T04:12:42;16.23;;;4.70;;
21890;SDS011;11110;52.386;16.940;2023-04-19T04:15:16;13.33;;;4.90;;
21890;SDS011;11110;52.386;16.940;2023-04-19T04:17:49;13.83;;;4.67;;
21890;SDS011;11110;52.386;16.940;2023-04-19T04:20:19;19.23;;;4.63;;
21890;SDS011;11110;52.386;16.940;2023-04-19T04:22:50;10.30;;;4.00;;
21890;SDS011;11110;52.386;16.940;2023-04-19T04:25:21;14.73;;;4.63;;
21890;SDS011;11110;52.386;16.940;2023-04-19T04:27:50;12.97;;;4.30;;
21890;SDS011;11110;52.386;16.940;2023-04-19T04:30:21;21.43;;;5.17;;
21890;SDS011;11110;52.386;16.940;2023-04-19T04:32:55;18.57;;;5.30;;
21890;SDS011;11110;52.386;16.940;2023-04-19T04:35:24;14.23;;;4.10;;
21890;SDS011;11110;52.386;16.940;2023-04-19T04:38:06;21.10;;;5.40;;
21890;SDS011;11110;52.386;16.940;2023-04-19T04:40:51;15.20;;;4.10;;
21890;SDS011;11110;52.386;16.940;2023-04-19T04:43:20;15.90;;;4.60;;
21890;SDS011;11110;52.386;16.940;2023-04-19T04:45:50;35.70;;;13.03;;
21890;SDS011;11110;52.386;16.940;2023-04-19T04:48:21;15.47;;;4.60;;
21890;SDS011;11110;52.386;16.940;2023-04-19T04:50:50;14.90;;;4.40;;
21890;SDS011;11110;52.386;16.940;2023-04-19T04:53:19;14.83;;;4.37;;
21890;SDS011;11110;52.386;16.940;2023-04-19T04:55:47;12.83;;;4.20;;
21890;SDS011;11110;52.386;16.940;2023-04-19T04:58:18;16.77;;;4.90;;
21890;SDS011;11110;52.386;16.940;2023-04-19T05:00:53;14.03;;;4.70;;
21890;SDS011;11110;52.386;16.940;2023-04-19T05:03:23;16.73;;;5.00;;
21890;SDS011;11110;52.386;16.940;2023-04-19T05:05:56;18.50;;;5.10;;
21890;SDS011;11110;52.386;16.940;2023-04-19T05:08:25;21.30;;;5.60;;
21890;SDS011;11110;52.386;16.940;2023-04-19T05:10:59;14.73;;;4.70;;
21890;SDS011;11110;52.386;16.940;2023-04-19T05:13:32;16.27;;;5.27;;
21890;SDS011;11110;52.386;16.940;2023-04-19T05:16:00;16.07;;;5.40;;
21890;SDS011;11110;52.386;16.940;2023-04-19T05:18:29;20.30;;;5.27;;
21890;SDS011;11110;52.386;16.940;2023-04-19T05:20:58;20.57;;;5.90;;
21890;SDS011;11110;52.386;16.940;2023-04-19T05:23:30;17.93;;;5.47;;
21890;SDS011;11110;52.386;16.940;2023-04-19T05:25:59;20.60;;;6.37;;
21890;SDS011;11110;52.386;16.940;2023-04-19T05:28:28;21.83;;;6.13;;
21890;SDS011;11110;52.386;16.940;2023-04-19T05:31:08;13.63;;;5.03;;
21890;SDS011;11110;52.386;16.940;2023-04-19T05:33:45;18.20;;;5.60;;
21890;SDS011;11110;52.386;16.940;2023-04-19T05:36:13;17.47;;;5.67;;
21890;SDS011;11110;52.386;16.940;2023-04-19T05:38:42;18.17;;;5.97;;
21890;SDS011;11110;52.386;16.940;2023-04-19T05:41:10;15.07;;;5.03;;
21890;SDS011;11110;52.386;16.940;2023-04-19T05:43:39;15.03;;;5.30;;
21890;SDS011;11110;52.386;16.940;2023-04-19T05:46:09;19.33;;;5.70;;
21890;SDS011;11110;52.386;16.940;2023-04-19T05:48:37;19.43;;;6.03;;
21890;SDS011;11110;52.386;16.940;2023-04-19T05:51:28;19.73;;;6.60;;
21890;SDS011;11110;52.386;16.940;2023-04-19T05:54:17;13.43;;;5.67;;
21890;SDS011;11110;52.386;16.940;2023-04-19T05:56:47;17.47;;;5.90;;
21890;SDS011;11110;52.386;16.940;2023-04-19T05:59:15;15.10;;;5.33;;
21890;SDS011;11110;52.386;16.940;2023-04-19T06:01:45;19.70;;;6.60;;
21890;SDS011;11110;52.386;16.940;2023-04-19T06:04:14;18.53;;;6.23;;
21890;SDS011;11110;52.386;16.940;2023-04-19T06:06:43;18.83;;;6.20;;
21890;SDS011;11110;52.386;16.940;2023-04-19T06:09:14;17.37;;;5.93;;
21890;SDS011;11110;52.386;16.940;2023-04-19T06:11:43;18.40;;;6.33;;
21890;SDS011;11110;52.386;16.940;2023-04-19T06:14:17;22.60;;;6.47;;
21890;SDS011;11110;52.386;16.940;2023-04-19T06:16:47;17.80;;;5.67;;
21890;SDS011;11110;52.386;16.940;2023-04-19T06:19:15;15.70;;;5.87;;
21890;SDS011;11110;52.386;16.940;2023-04-19T06:21:43;20.53;;;6.00;;
21890;SDS011;11110;52.386;16.940;2023-04-19T06:24:13;12.70;;;5.43;;
21890;SDS011;11110;52.386;16.940;2023-04-19T06:26:42;18.83;;;5.33;;
21890;SDS011;11110;52.386;16.940;2023-04-19T06:29:10;15.00;;;5.60;;
21890;SDS011;11110;52.386;16.940;2023-04-19T06:31:39;17.70;;;5.40;;
21890;SDS011;11110;52.386;16.940;2023-04-19T06:34:10;15.87;;;5.33;;
21890;SDS011;11110;52.386;16.940;2023-04-19T06:36:38;19.70;;;5.67;;
21890;SDS011;11110;52.386;16.940;2023-04-19T06:39:07;15.10;;;5.07;;
21890;SDS011;11110;52.386;16.940;2023-04-19T06:41:35;16.30;;;5.13;;
21890;SDS011;11110;52.386;16.940;2023-04-19T06:44:04;19.87;;;5.90;;
21890;SDS011;11110;52.386;16.940;2023-04-19T06:46:33;19.97;;;6.10;;
21890;SDS011;11110;52.386;16.940;2023-04-19T06:49:01;15.60;;;4.87;;
21890;SDS011;11110;52.386;16.940;2023-04-19T06:51:31;14.97;;;5.43;;
21890;SDS011;11110;52.386;16.940;2023-04-19T06:54:00;16.93;;;5.67;;
21890;SDS011;11110;52.386;16.940;2023-04-19T06:56:38;19.63;;;6.20;;
21890;SDS011;11110;52.386;16.940;2023-04-19T06:59:08;20.43;;;6.53;;
21890;SDS011;11110;52.386;16.940;2023-04-19T07:01:36;18.70;;;5.87;;
21890;SDS011;11110;52.386;16.940;2023-04-19T07:04:05;18.03;;;5.80;;
21890;SDS011;11110;52.386;16.940;2023-04-19T07:06:35;14.20;;;5.83;;
21890;SDS011;11110;52.386;16.940;2023-04-19T07:09:04;16.90;;;6.10;;
21890;SDS011;11110;52.386;16.940;2023-04-19T07:11:34;15.57;;;5.53;;
21890;SDS011;11110;52.386;16.940;2023-04-19T07:14:02;20.43;;;6.10;;
21890;SDS011;11110;52.386;16.940;2023-04-19T07:16:31;19.23;;;5.97;;
21890;SDS011;11110;52.386;16.940;2023-04-19T07:19:00;18.83;;;6.07;;
21890;SDS011;11110;52.386;16.940;2023-04-19T07:21:28;19.47;;;6.77;;
21890;SDS011;11110;52.386;16.940;2023-04-19T07:24:00;15.73;;;5.70;;
21890;SDS011;11110;52.386;16.940;2023-04-19T07:26:29;19.13;;;6.23;;
21890;SDS011;11110;52.386;16.940;2023-04-19T07:28:58;19.97;;;6.30;;
21890;SDS011;11110;52.386;16.940;2023-04-19T07:31:26;15.67;;;6.13;;
21890;SDS011;11110;52.386;16.940;2023-04-19T07:33:55;23.47;;;6.80;;
21890;SDS011;11110;52.386;16.940;2023-04-19T07:36:23;21.87;;;6.10;;
21890;SDS011;11110;52.386;16.940;2023-04-19T07:38:52;16.93;;;5.53;;
21890;SDS011;11110;52.386;16.940;2023-04-19T07:41:22;22.10;;;6.20;;
21890;SDS011;11110;52.386;16.940;2023-04-19T07:43:51;18.13;;;6.43;;
21890;SDS011;11110;52.386;16.940;2023-04-19T07:46:19;15.47;;;5.87;;
21890;SDS011;11110;52.386;16.940;2023-04-19T07:48:48;16.57;;;6.60;;
21890;SDS011;11110;52.386;16.940;2023-04-19T07:51:16;12.07;;;4.93;;
21890;SDS011;11110;52.386;16.940;2023-04-19T07:53:45;19.43;;;6.20;;
21890;SDS011;11110;52.386;16.940;2023-04-19T07:56:14;20.80;;;6.27;;
21890;SDS011;11110;52.386;16.940;2023-04-19T07:58:44;16.87;;;5.90;;
21890;SDS011;11110;52.386;16.940;2023-04-19T08:01:30;13.97;;;5.53;;
21890;SDS011;11110;52.386;16.940;2023-04-19T08:03:58;20.00;;;6.43;;
21890;SDS011;11110;52.386;16.940;2023-04-19T08:06:27;17.97;;;5.73;;
21890;SDS011;11110;52.386;16.940;2023-04-19T08:08:56;23.70;;;6.63;;
21890;SDS011;11110;52.386;16.940;2023-04-19T08:11:25;16.77;;;5.73;;
21890;SDS011;11110;52.386;16.940;2023-04-19T08:13:55;21.47;;;6.67;;
21890;SDS011;11110;52.386;16.940;2023-04-19T08:16:43;21.20;;;6.47;;
21890;SDS011;11110;52.386;16.940;2023-04-19T08:19:15;22.70;;;6.73;;
21890;SDS011;11110;52.386;16.940;2023-04-19T08:21:43;13.67;;;5.37;;
21890;SDS011;11110;52.386;16.940;2023-04-19T08:24:11;17.67;;;6.03;;
21890;SDS011;11110;52.386;16.940;2023-04-19T08:26:40;21.60;;;6.07;;
21890;SDS011;11110;52.386;16.940;2023-04-19T08:29:10;21.47;;;6.70;;
21890;SDS011;11110;52.386;16.940;2023-04-19T08:31:39;14.73;;;5.27;;
21890;SDS011;11110;52.386;16.940;2023-04-19T08:34:10;17.17;;;5.97;;
21890;SDS011;11110;52.386;16.940;2023-04-19T08:36:39;13.07;;;4.97;;
21890;SDS011;11110;52.386;16.940;2023-04-19T08:39:18;21.10;;;6.70;;
21890;SDS011;11110;52.386;16.940;2023-04-19T08:42:00;23.33;;;6.77;;
21890;SDS011;11110;52.386;16.940;2023-04-19T08:44:45;18.43;;;6.07;;
21890;SDS011;11110;52.386;16.940;2023-04-19T08:47:34;16.67;;;5.63;;
21890;SDS011;11110;52.386;16.940;2023-04-19T08:50:23;22.73;;;6.77;;
21890;SDS011;11110;52.386;16.940;2023-04-19T08:53:01;19.77;;;6.40;;
21890;SDS011;11110;52.386;16.940;2023-04-19T08:55:50;15.53;;;5.50;;
21890;SDS011;11110;52.386;16.940;2023-04-19T08:58:38;18.40;;;5.87;;
21890;SDS011;11110;52.386;16.940;2023-04-19T09:01:28;19.13;;;6.10;;
21890;SDS011;11110;52.386;16.940;2023-04-19T09:04:02;18.57;;;6.33;;
21890;SDS011;11110;52.386;16.940;2023-04-19T09:06:53;19.33;;;6.37;;
21890;SDS011;11110;52.386;16.940;2023-04-19T09:09:23;22.30;;;6.67;;
21890;SDS011;11110;52.386;16.940;2023-04-19T09:12:14;15.80;;;5.97;;
21890;SDS011;11110;52.386;16.940;2023-04-19T09:14:43;25.20;;;6.70;;
21890;SDS011;11110;52.386;16.940;2023-04-19T09:17:28;17.17;;;7.33;;
21890;SDS011;11110;52.386;16.940;2023-04-19T09:19:57;20.63;;;7.63;;
21890;SDS011;11110;52.386;16.940;2023-04-19T09:22:26;19.97;;;6.90;;
21890;SDS011;11110;52.386;16.940;2023-04-19T09:24:54;17.23;;;5.80;;
21890;SDS011;11110;52.386;16.940;2023-04-19T09:27:27;19.53;;;6.93;;
21890;SDS011;11110;52.386;16.940;2023-04-19T09:29:56;17.90;;;6.70;;
21890;SDS011;11110;52.386;16.940;2023-04-19T09:32:27;19.40;;;6.67;;
21890;SDS011;11110;52.386;16.940;2023-04-19T09:35:12;22.70;;;7.20;;
21890;SDS011;11110;52.386;16.940;2023-04-19T09:37:40;19.73;;;7.40;;
21890;SDS011;11110;52.386;16.940;2023-04-19T09:40:20;19.97;;;6.60;;
21890;SDS011;11110;52.386;16.940;2023-04-19T09:42:50;14.37;;;5.73;;
21890;SDS011;11110;52.386;16.940;2023-04-19T09:45:21;15.37;;;5.77;;
21890;SDS011;11110;52.386;16.940;2023-04-19T09:48:01;19.37;;;7.17;;
21890;SDS011;11110;52.386;16.940;2023-04-19T09:50:31;20.70;;;7.83;;
21890;SDS011;11110;52.386;16.940;2023-04-19T09:53:20;20.47;;;7.80;;
21890;SDS011;11110;52.386;16.940;2023-04-19T09:55:49;26.27;;;8.37;;
21890;SDS011;11110;52.386;16.940;2023-04-19T09:58:27;18.60;;;7.13;;
21890;SDS011;11110;52.386;16.940;2023-04-19T10:01:15;12.10;;;5.83;;
21890;SDS011;11110;52.386;16.940;2023-04-19T10:03:47;13.77;;;5.83;;
21890;SDS011;11110;52.386;16.940;2023-04-19T10:06:18;18.17;;;6.17;;
21890;SDS011;11110;52.386;16.940;2023-04-19T10:08:50;15.77;;;5.90;;
21890;SDS011;11110;52.386;16.940;2023-04-19T10:11:21;16.53;;;5.77;;
21890;SDS011;11110;52.386;16.940;2023-04-19T10:13:54;14.83;;;5.83;;
21890;SDS011;11110;52.386;16.940;2023-04-19T10:16:26;17.93;;;6.57;;
21890;SDS011;11110;52.386;16.940;2023-04-19T10:18:58;18.33;;;6.90;;
21890;SDS011;11110;52.386;16.940;2023-04-19T10:21:28;12.10;;;4.90;;
21890;SDS011;11110;52.386;16.940;2023-04-19T10:23:57;16.40;;;6.77;;
21890;SDS011;11110;52.386;16.940;2023-04-19T10:26:26;20.93;;;7.43;;
21890;SDS011;11110;52.386;16.940;2023-04-19T10:28:56;18.57;;;7.07;;
21890;SDS011;11110;52.386;16.940;2023-04-19T10:31:24;25.73;;;11.20;;
21890;SDS011;11110;52.386;16.940;2023-04-19T10:33:53;24.17;;;7.80;;
21890;SDS011;11110;52.386;16.940;2023-04-19T10:36:25;16.50;;;6.87;;
21890;SDS011;11110;52.386;16.940;2023-04-19T10:38:55;19.47;;;7.00;;
21890;SDS011;11110;52.386;16.940;2023-04-19T10:41:24;21.50;;;8.13;;
21890;SDS011;11110;52.386;16.940;2023-04-19T10:44:25;13.73;;;6.50;;
21890;SDS011;11110;52.386;16.940;2023-04-19T10:46:53;19.50;;;6.70;;
21890;SDS011;11110;52.386;16.940;2023-04-19T10:49:22;18.97;;;7.03;;
21890;SDS011;11110;52.386;16.940;2023-04-19T10:51:52;17.60;;;6.33;;
21890;SDS011;11110;52.386;16.940;2023-04-19T10:54:28;22.50;;;7.57;;
21890;SDS011;11110;52.386;16.940;2023-04-19T10:56:58;20.00;;;6.90;;
21890;SDS011;11110;52.386;16.940;2023-04-19T10:59:28;22.80;;;7.57;;
21890;SDS011;11110;52.386;16.940;2023-04-19T11:01:58;20.47;;;8.23;;
21890;SDS011;11110;52.386;16.940;2023-04-19T11:07:39;22.60;;;7.40;;
21890;SDS011;11110;52.386;16.940;2023-04-19T11:10:09;18.83;;;7.03;;
21890;SDS011;11110;52.386;16.940;2023-04-19T11:12:41;18.30;;;7.50;;
21890;SDS011;11110;52.386;16.940;2023-04-19T11:15:11;17.67;;;7.43;;
21890;SDS011;11110;52.386;16.940;2023-04-19T11:17:39;19.13;;;7.13;;
21890;SDS011;11110;52.386;16.940;2023-04-19T11:20:09;15.97;;;6.73;;
21890;SDS011;11110;52.386;16.940;2023-04-19T11:22:41;16.93;;;6.90;;
21890;SDS011;11110;52.386;16.940;2023-04-19T11:25:12;18.30;;;7.63;;
21890;SDS011;11110;52.386;16.940;2023-04-19T11:27:42;17.53;;;6.73;;
21890;SDS011;11110;52.386;16.940;2023-04-19T11:30:13;20.73;;;6.90;;
21890;SDS011;11110;52.386;16.940;2023-04-19T11:32:45;18.53;;;6.97;;
21890;SDS011;11110;52.386;16.940;2023-04-19T11:35:16;22.90;;;8.37;;
21890;SDS011;11110;52.386;16.940;2023-04-19T11:37:48;20.37;;;9.10;;
21890;SDS011;11110;52.386;16.940;2023-04-19T11:40:17;24.23;;;8.07;;
21890;SDS011;11110;52.386;16.940;2023-04-19T11:42:46;17.30;;;7.47;;
21890;SDS011;11110;52.386;16.940;2023-04-19T11:45:24;19.83;;;7.77;;
21890;SDS011;11110;52.386;16.940;2023-04-19T11:47:57;18.67;;;7.33;;
21890;SDS011;11110;52.386;16.940;2023-04-19T11:50:34;15.80;;;7.07;;
21890;SDS011;11110;52.386;16.940;2023-04-19T11:53:14;19.37;;;7.17;;
21890;SDS011;11110;52.386;16.940;2023-04-19T11:55:44;19.50;;;7.67;;
21890;SDS011;11110;52.386;16.940;2023-04-19T11:58:23;24.60;;;8.60;;
21890;SDS011;11110;52.386;16.940;2023-04-19T12:00:55;20.73;;;8.00;;
21890;SDS011;11110;52.386;16.940;2023-04-19T12:03:26;20.27;;;8.20;;
21890;SDS011;11110;52.386;16.940;2023-04-19T12:05:55;19.83;;;8.77;;
21890;SDS011;11110;52.386;16.940;2023-04-19T12:08:30;21.50;;;9.20;;
21890;SDS011;11110;52.386;16.940;2023-04-19T12:11:00;19.60;;;7.73;;
21890;SDS011;11110;52.386;16.940;2023-04-19T12:13:30;19.20;;;7.47;;
21890;SDS011;11110;52.386;16.940;2023-04-19T12:15:59;19.63;;;7.80;;
21890;SDS011;11110;52.386;16.940;2023-04-19T12:18:40;19.13;;;6.80;;
21890;SDS011;11110;52.386;16.940;2023-04-19T12:21:11;21.07;;;8.07;;
21890;SDS011;11110;52.386;16.940;2023-04-19T12:23:53;18.50;;;7.87;;
21890;SDS011;11110;52.386;16.940;2023-04-19T12:26:23;15.43;;;8.57;;
21890;SDS011;11110;52.386;16.940;2023-04-19T12:28:52;18.70;;;8.00;;
21890;SDS011;11110;52.386;16.940;2023-04-19T12:31:21;16.50;;;7.17;;
21890;SDS011;11110;52.386;16.940;2023-04-19T12:33:49;18.27;;;7.63;;
21890;SDS011;11110;52.386;16.940;2023-04-19T12:36:18;21.63;;;8.10;;
21890;SDS011;11110;52.386;16.940;2023-04-19T12:38:47;15.80;;;6.70;;
21890;SDS011;11110;52.386;16.940;2023-04-19T12:41:17;22.03;;;7.97;;
21890;SDS011;11110;52.386;16.940;2023-04-19T12:43:46;15.50;;;6.93;;
21890;SDS011;11110;52.386;16.940;2023-04-19T12:46:15;18.43;;;9.40;;
21890;SDS011;11110;52.386;16.940;2023-04-19T12:48:43;19.53;;;7.60;;
21890;SDS011;11110;52.386;16.940;2023-04-19T12:51:12;16.43;;;7.43;;
21890;SDS011;11110;52.386;16.940;2023-04-19T12:53:40;22.97;;;8.37;;
21890;SDS011;11110;52.386;16.940;2023-04-19T12:56:14;16.80;;;7.37;;
21890;SDS011;11110;52.386;16.940;2023-04-19T12:58:44;17.97;;;7.67;;
21890;SDS011;11110;52.386;16.940;2023-04-19T13:01:12;19.20;;;8.33;;
21890;SDS011;11110;52.386;16.940;2023-04-19T13:03:41;17.57;;;7.20;;
21890;SDS011;11110;52.386;16.940;2023-04-19T13:06:10;15.07;;;6.57;;
21890;SDS011;11110;52.386;16.940;2023-04-19T13:08:40;18.40;;;7.73;;
21890;SDS011;11110;52.386;16.940;2023-04-19T13:11:14;18.17;;;7.50;;
21890;SDS011;11110;52.386;16.940;2023-04-19T13:13:50;18.13;;;7.17;;
21890;SDS011;11110;52.386;16.940;2023-04-19T13:16:19;19.33;;;8.10;;
21890;SDS011;11110;52.386;16.940;2023-04-19T13:18:48;18.27;;;7.40;;
21890;SDS011;11110;52.386;16.940;2023-04-19T13:21:18;18.77;;;7.53;;
21890;SDS011;11110;52.386;16.940;2023-04-19T13:23:46;21.63;;;7.80;;
21890;SDS011;11110;52.386;16.940;2023-04-19T13:26:15;18.70;;;7.13;;
21890;SDS011;11110;52.386;16.940;2023-04-19T13:28:43;15.43;;;6.93;;
21890;SDS011;11110;52.386;16.940;2023-04-19T13:31:14;17.70;;;7.43;;
21890;SDS011;11110;52.386;16.940;2023-04-19T13:33:42;16.83;;;6.70;;
21890;SDS011;11110;52.386;16.940;2023-04-19T13:36:12;14.57;;;6.67;;
21890;SDS011;11110;52.386;16.940;2023-04-19T13:38:40;18.43;;;7.33;;
21890;SDS011;11110;52.386;16.940;2023-04-19T13:41:09;17.27;;;7.70;;
21890;SDS011;11110;52.386;16.940;2023-04-19T13:43:37;15.80;;;7.10;;
21890;SDS011;11110;52.386;16.940;2023-04-19T13:46:06;21.83;;;7.90;;
21890;SDS011;11110;52.386;16.940;2023-04-19T13:48:36;17.47;;;7.57;;
21890;SDS011;11110;52.386;16.940;2023-04-19T13:51:05;16.87;;;7.67;;
21890;SDS011;11110;52.386;16.940;2023-04-19T13:53:33;21.53;;;8.60;;
21890;SDS011;11110;52.386;16.940;2023-04-19T13:56:02;20.07;;;7.80;;
21890;SDS011;11110;52.386;16.940;2023-04-19T13:58:34;21.03;;;8.70;;
21890;SDS011;11110;52.386;16.940;2023-04-19T14:01:03;24.77;;;8.83;;
21890;SDS011;11110;52.386;16.940;2023-04-19T14:03:32;19.67;;;7.63;;
21890;SDS011;11110;52.386;16.940;2023-04-19T14:06:02;16.13;;;7.93;;
21890;SDS011;11110;52.386;16.940;2023-04-19T14:08:31;17.67;;;7.37;;
21890;SDS011;11110;52.386;16.940;2023-04-19T14:10:59;16.33;;;7.57;;
21890;SDS011;11110;52.386;16.940;2023-04-19T14:13:27;15.90;;;7.77;;
21890;SDS011;11110;52.386;16.940;2023-04-19T14:15:56;18.10;;;8.40;;
21890;SDS011;11110;52.386;16.940;2023-04-19T14:18:25;15.40;;;7.73;;
21890;SDS011;11110;52.386;16.940;2023-04-19T14:20:53;22.03;;;11.47;;
21890;SDS011;11110;52.386;16.940;2023-04-19T14:23:23;25.10;;;11.80;;
21890;SDS011;11110;52.386;16.940;2023-04-19T14:25:52;19.40;;;9.13;;
21890;SDS011;11110;52.386;16.940;2023-04-19T14:28:20;18.17;;;9.37;;
21890;SDS011;11110;52.386;16.940;2023-04-19T14:30:49;18.57;;;9.00;;
21890;SDS011;11110;52.386;16.940;2023-04-19T14:33:17;22.17;;;9.30;;
21890;SDS011;11110;52.386;16.940;2023-04-19T14:35:46;18.90;;;9.03;;
21890;SDS011;11110;52.386;16.940;2023-04-19T14:38:14;14.97;;;7.63;;
21890;SDS011;11110;52.386;16.940;2023-04-19T14:40:44;22.37;;;11.33;;
21890;SDS011;11110;52.386;16.940;2023-04-19T14:43:13;17.67;;;10.33;;
21890;SDS011;11110;52.386;16.940;2023-04-19T14:45:42;17.00;;;8.50;;
21890;SDS011;11110;52.386;16.940;2023-04-19T14:48:11;16.57;;;8.50;;